Hauptseite
METAR-TAF:

METAR-TAF

Flughäfen :

Castres, Frankreich

Flughafen Castres-Mazamet

Breite: 43-33-25N, Länge: 2-17-21E, Höhe: 239 m

Beobachtung

Neuester Wetterbericht von vor 23 Minuten, um 09:30 UTC
Wind 16 kt aus Ost/Südost
Temperatur 22°C
Luftfeuchtigkeit 38%
Luftdruck 1026 hPa
Sichtweite 10 km oder mehr
keine Wolken unter 1500 m und keine Kumulonimbus oder Gewitterwolken

METAR: LFCK 190930Z AUTO 11016KT CAVOK 22/07 Q1026 TEMPO 12018G30KT

Zeit: 11:53 (09:53 UTC)

Prognose

Neuester Wetterbericht von vor 1 Stunde und 53 Minuten, um 08:00 UTC
Gültige Prognose vom 19 um 09 UTC bis 19 um 18 UTC
Wind 12 kt aus Ost/Südost
Sichtweite 10 km oder mehr
keine Wolken unter 1500 m und keine Kumulonimbus oder Gewitterwolken
Zeitweise
vom 19 um 09 UTC bis 19 um 18 UTC
Wind 18 kt aus Ost/Südost, Böen bis zu 30 kt

TAF: LFCK 190800Z 1909/1918 12012KT CAVOK TEMPO 1909/1918 12018G30KT

Wetterbeobachtungen und Prognosen von mehr als 4000 Flughäfen (METAR und TAF Bericht).

Die verfügbaren Stationen werden durch gelbe und rote Markierungen auf der Karte dargestellt.

Führen Sie die Maus auf sie, um den Namen der Station zu sehen.

Darauf klicken, um die Beobachtung von Wetterbeobachtungen und Prognosen zu sehen.

Um die Karte zu ändern : klicken Sie auf den grünen Tasten mit einem schwarzen Kreuz Zum Vergrößern, auf den grünen Button mit einem Gedankenstrich zu verkleinern, oder auf die grünen Pfeile für benachbarte Karten.


METAR-TAF: